Wickenburg, Arizona
Current Conditions -  °F | °C
As of 2:58 AM on Friday 31 Oct 2014 (Local Time) from KLUF Reporting Station
Few Clouds Few Clouds  
Wind Chill: 67°   Ceiling: Unl
Heat Index: 67°   Visibility: 10mi
Dew Point: 45°   Wind: 2mph
Humidity: 44%   Direction: 330°NNW
Pressure: 29.9"   Gusts: NA
Location:  33.97°N, 112.75°W
Report Text: KLUF 310958Z AUTO 33002KT 10SM FEW210 20/07 A2990 RMK AO2 SLP114 T01960070 $
Loading
Personal Weather Stations






























Interactive Weather Map
Tropical Storm Tracking
New forecast layout! Learn more

10-Day Weather Forecast

Advertisements
Track Severe Weather on mobile